Springfield, IL

12:35 AM CDT on May 25, 2015 (GMT -0500)
Jacksonville Municipal | | Change Station
CLOSE
Current Station
Airport
Location: Jacksonville,
Elevation: 623 ft
Nearby Weather Stations

Elev 623 ft 39.77 °N, 90.24 °W | Updated 20 minutes ago

Rain
Rain
72 °F
Feels Like 72 °F
N
15
Wind Variable Wind from SSE

Today
High -- | Low -- °F
--% Chance of Precip.
Yesterday
High -- | Low -- °F
Precip. -- in
5:36 AM 8:15 PM
Waxing Crescent, 45% visible
Pressure 29.86 in
Visibility 10.0 miles
Clouds Scattered Clouds 5500 ft
Mostly Cloudy 7000 ft
Mostly Cloudy 8000 ft
Dew Point 68 °F
Humidity 87%
Rainfall 0.00 in
Snow Depth Not available.
UV 0 out of 12
Pollen 8.00 out of 12
Air Quality Not available.
Flu Activity Sporadic
METAR KIJX 250515Z AUTO 15013KT 10SM SCT055 BKN070 BKN080 22/20 A2986 RMK AO2 T02200198

More Conditions Fewer Conditions

Pressure 29.86 in
Visibility 10.0 miles
Clouds Scattered Clouds 5500 ft
Mostly Cloudy 7000 ft
Mostly Cloudy 8000 ft
Dew Point 68 °F
Humidity 87%
Rainfall 0.00 in
Snow Depth Not available.
UV 0 out of 12
Pollen 8.00 out of 12
Air Quality Not available.
Flu Activity Sporadic
METAR KIJX 250515Z AUTO 15013KT 10SM SCT055 BKN070 BKN080 22/20 A2986 RMK AO2 T02200198

More Conditions Fewer Conditions

10-Day Weather Forecast

Almanac

Astronomy

May. 25, 2015 Rise Set
Actual Time
Civil Twilight
Nautical Twilight
Astronomical Twilight
Moon
Length of Visible Light
Length of Day
Tomorrow will be .
, % of the Moon is Illuminated

Today's Extremes

State Highs State Lows

Community

WunderPhotos

Upload Photos

1,823,956 photos uploaded!

WunderBlogs® & News

Nearby

Air Quality

  Air Quality AQ Index Pollutant
Not available.

Snow Depth

Station Depth Elevation

Earthquake Activity

City Distance Mag. Time & Date
Minimum magnitude displayed is 2.5.

Coastal Water Temperatures

Place Temperature

Stations

Nearby Weather Stations

Station Location Temp. Windchill Dew Point Humidity Wind Precip. Elev Updated Type